Omaha, NE

9:13 PM CDT on July 23, 2016 (GMT -0500)
| | Change Station

Elev -9999 ft 0.00 °N, 0.00 °E | Updated

Partly Cloudy
Partly Cloudy
84 °F
Feels Like 91 °F
N
7
Wind Variable Wind from South
Gusts 13 mph

Today
High -- | Low -- °F
--% Chance of Precip.
Yesterday
High -- | Low -- °F
Precip. -- in
Pressure 29.77 in
Visibility 10.0 miles
Clouds Clear
Heat Index 91 °F
Dew Point 73 °F
Humidity 72%
Rainfall --
Snow Depth Not available.
6:11 AM 8:49 PM
Waning Gibbous, 80% visible
METAR KMLE 240155Z AUTO 13003KT 10SM CLR 30/26 A2977 RMK AO2 T02980255
Pressure 29.77 in
Visibility 10.0 miles
Clouds Clear
Heat Index 91 °F
Dew Point 73 °F
Humidity 72%
Rainfall --
Snow Depth Not available.
6:11 AM 8:49 PM
Waning Gibbous, 80% visible
METAR KMLE 240155Z AUTO 13003KT 10SM CLR 30/26 A2977 RMK AO2 T02980255

10-Day Weather Forecast

Almanac

Astronomy

Jul. 23, 2016 Rise Set
Actual Time
Civil Twilight
Nautical Twilight
Astronomical Twilight
Moon
Length of Visible Light
Length of Day
Tomorrow will be .
, % of the Moon is Illuminated

Today's Extremes

State Highs State Lows

Community

WunderPhotos

Upload Photos

1,927,000 photos uploaded!

WunderBlog® & News

Nearby

Air Quality

  Air Quality AQ Index Pollutant
Not available.

Snow Depth

Station Depth Elevation

Earthquake Activity

City Distance Mag. Time & Date
Minimum magnitude displayed is 2.5.

Coastal Water Temperatures

Place Temperature

Stations

Nearby Weather Stations

Station Location Temp. Windchill Dew Point Humidity Wind Precip. Elev Updated Type
                   

Watches & Warnings

There are currently no watches in effect.